Terminal Aerodrome Forecast
Issued by NWS

Home | Current Version | Previous Version | Text Only | Print | Product List | Glossary On
Versions: 1 2 3 4 5 6 7 8 9 10 11 12 13 14 15 16 17 18 19 20 21 22 23
000
FTUS41 KOKX 292300
TAFSWF
TAF
KSWF 292331Z 3000/3106 VRB05KT P6SM FEW050
     FM300800 VRB04KT P6SM FEW020 BKN250
      TEMPO 3008/3012 5SM BR
     FM301600 20007KT P6SM SCT030 BKN150
      AMD NOT SKED=

USA.gov is the U.S. government's official web portal to all federal, state and local government web resources and services.